Time;durP1;ratioP1;P1;durP2;ratioP2;P2;SDS_P1;SDS_P2;PMS_P1;PMS_P2;Temp;Humidity;BMP_temperature;BMP_pressure;BME280_temperature;BME280_humidity;BME280_pressure;Samples;Min_cycle;Max_cycle;Signal;HPM_P1;HPM_P2
2022/04/12 00:02:28;;;;;;;1.55;0.57;;;;;;;20.08;29.51;100906.94;16143162;19;129785;-39
2022/04/12 00:07:50;;;;;;;1.15;0.50;;;;;;;20.05;29.72;100902.75;16144824;19;129208;-38
2022/04/12 00:13:12;;;;;;;1.33;0.63;;;;;;;20.04;29.59;100900.22;16145024;19;129311;-38
2022/04/12 00:24:15;;;;;;;1.17;0.50;;;;;;;19.98;29.85;100916.78;16143768;19;129971;-39
2022/04/12 00:29:36;;;;;;;1.38;0.60;;;;;;;19.97;29.92;100917.88;16141401;19;130683;-38
2022/04/12 00:34:59;;;;;;;1.23;0.60;;;;;;;19.94;30.05;100901.72;16141749;19;129616;-39
2022/04/12 00:40:24;;;;;;;1.85;0.50;;;;;;;19.92;29.75;100890.06;16137831;19;129229;-38
2022/04/12 00:45:47;;;;;;;2.60;0.50;;;;;;;19.90;29.72;100883.91;16140066;19;129649;-40
2022/04/12 00:51:09;;;;;;;1.00;0.45;;;;;;;19.87;29.94;100878.88;16138438;19;129288;-38
2022/04/12 00:56:31;;;;;;;1.08;0.50;;;;;;;19.85;29.91;100869.94;16140669;19;129339;-40
2022/04/12 01:01:53;;;;;;;1.05;0.50;;;;;;;19.84;29.94;100868.25;16133480;19;131322;-38
2022/04/12 01:07:15;;;;;;;1.10;0.50;;;;;;;19.83;30.02;100880.47;16138676;19;129784;-38
2022/04/12 01:12:38;;;;;;;2.03;0.50;;;;;;;19.81;29.75;100879.91;16140730;19;129453;-38
2022/04/12 01:18:00;;;;;;;2.45;0.55;;;;;;;19.79;29.83;100882.09;16138621;19;129392;-39
2022/04/12 01:23:28;;;;;;;1.08;0.40;;;;;;;19.77;30.04;100874.00;16138505;19;129709;-38
2022/04/12 01:28:49;;;;;;;2.17;0.40;;;;;;;19.76;30.10;100874.25;16140162;19;130166;-38
2022/04/12 01:34:12;;;;;;;2.17;0.55;;;;;;;19.74;29.92;100868.13;16138101;19;130997;-38
2022/04/12 01:39:33;;;;;;;1.38;0.30;;;;;;;19.73;29.93;100877.53;16137295;19;128845;-39
2022/04/12 01:44:55;;;;;;;1.15;0.50;;;;;;;19.69;29.85;100866.13;16133774;19;129468;-40
2022/04/12 01:50:17;;;;;;;2.08;0.50;;;;;;;19.67;30.11;100859.97;16130468;19;129836;-40
2022/04/12 01:55:39;;;;;;;3.13;0.80;;;;;;;19.66;30.07;100872.16;16131624;19;130605;-39
2022/04/12 02:01:00;;;;;;;2.13;0.40;;;;;;;19.63;30.07;100859.66;16125393;19;132686;-38
2022/04/12 02:06:23;;;;;;;0.80;0.47;;;;;;;19.62;30.17;100851.59;16130963;19;129632;-38
2022/04/12 02:11:45;;;;;;;1.02;0.40;;;;;;;19.61;30.11;100861.00;16130637;19;129966;-38
2022/04/12 02:17:07;;;;;;;1.23;0.45;;;;;;;19.59;30.37;100861.25;16130536;19;130476;-38
2022/04/12 02:22:29;;;;;;;0.75;0.50;;;;;;;19.57;30.31;100840.41;16125324;19;130198;-39
2022/04/12 02:27:51;;;;;;;2.17;0.50;;;;;;;19.54;30.24;100830.66;16130379;19;129367;-38
2022/04/12 02:33:13;;;;;;;0.85;0.25;;;;;;;19.52;29.97;100818.97;16127897;19;130082;-39
2022/04/12 02:38:34;;;;;;;0.85;0.40;;;;;;;19.51;30.00;100811.75;16126574;19;130178;-39
2022/04/12 02:43:56;;;;;;;1.10;0.40;;;;;;;19.50;30.14;100801.72;15971756;19;2979306;-41
2022/04/12 02:49:18;;;;;;;1.13;0.40;;;;;;;19.49;30.02;100805.59;16134127;19;129747;-38
2022/04/12 02:54:40;;;;;;;1.17;0.40;;;;;;;19.46;30.13;100798.63;16134289;19;130364;-39
2022/04/12 03:00:03;;;;;;;2.35;0.32;;;;;;;19.46;30.15;100817.19;16131040;19;129676;-40
2022/04/12 03:05:25;;;;;;;0.55;0.30;;;;;;;19.45;29.92;100821.06;16133503;19;129872;-39
2022/04/12 03:10:47;;;;;;;0.85;0.52;;;;;;;19.44;29.88;100811.09;16132668;19;129993;-39
2022/04/12 03:16:09;;;;;;;0.50;0.40;;;;;;;19.42;29.96;100804.94;16128811;19;130295;-39
2022/04/12 03:21:31;;;;;;;1.73;0.50;;;;;;;19.41;30.19;100798.53;16127859;19;129589;-38
2022/04/12 03:26:52;;;;;;;1.27;0.40;;;;;;;19.38;30.26;100763.84;16132660;19;131013;-39
2022/04/12 03:32:14;;;;;;;0.70;0.47;;;;;;;19.36;30.46;100759.66;16130391;19;131008;-38
2022/04/12 03:37:36;;;;;;;0.70;0.30;;;;;;;19.35;30.15;100757.97;16129512;19;128945;-40
2022/04/12 03:42:59;;;;;;;2.88;0.50;;;;;;;19.34;29.94;100772.94;16126116;19;129987;-40
2022/04/12 03:48:21;;;;;;;0.80;0.40;;;;;;;19.34;30.30;100809.00;16141901;19;129484;-39
2022/04/12 03:53:43;;;;;;;0.90;0.38;;;;;;;19.33;29.94;100824.78;16148128;19;129371;-41
2022/04/12 03:59:05;;;;;;;0.60;0.47;;;;;;;19.31;30.29;100818.69;16061202;19;131666;-38
2022/04/12 04:04:26;;;;;;;0.90;0.38;;;;;;;19.31;30.33;100821.44;16120620;19;130207;-39
2022/04/12 04:09:48;;;;;;;0.77;0.40;;;;;;;19.29;30.01;100823.63;16134057;19;129924;-38
2022/04/12 04:15:14;;;;;;;0.70;0.40;;;;;;;19.30;30.43;100813.34;16132171;19;129786;-38
2022/04/12 04:20:36;;;;;;;1.13;0.50;;;;;;;19.28;30.02;100821.94;16133657;19;130454;-39
2022/04/12 04:25:58;;;;;;;0.35;0.30;;;;;;;19.26;30.13;100818.59;16132647;19;129448;-40
2022/04/12 04:31:20;;;;;;;1.38;0.70;;;;;;;19.25;30.46;100811.34;16131959;19;129229;-38
2022/04/12 04:36:45;;;;;;;0.40;0.38;;;;;;;19.22;30.46;100807.16;16132864;19;129466;-38
2022/04/12 04:42:07;;;;;;;0.90;0.60;;;;;;;19.21;30.09;100801.84;16123088;19;129354;-40
2022/04/12 04:47:29;;;;;;;1.45;0.63;;;;;;;19.20;30.00;100803.75;16132925;19;129812;-38
2022/04/12 04:52:51;;;;;;;0.98;0.40;;;;;;;19.19;30.49;100813.16;16132514;19;130312;-38
2022/04/12 04:58:13;;;;;;;1.23;0.50;;;;;;;19.18;30.12;100799.56;16129111;19;129556;-38
2022/04/12 05:03:34;;;;;;;0.60;0.40;;;;;;;19.17;30.55;100795.13;16125505;19;129856;-39
2022/04/12 05:08:56;;;;;;;0.85;0.30;;;;;;;19.15;30.34;100800.06;16131248;19;129612;-39
2022/04/12 05:14:18;;;;;;;1.27;0.47;;;;;;;19.14;30.29;100809.47;16131576;19;129793;-39
2022/04/12 05:19:40;;;;;;;2.78;0.65;;;;;;;19.12;30.45;100826.38;16126259;19;130372;-38
2022/04/12 05:25:02;;;;;;;0.52;0.35;;;;;;;19.14;30.40;100820.56;16135973;19;129336;-38
2022/04/12 05:30:24;;;;;;;3.20;0.50;;;;;;;19.11;30.34;100812.75;16133769;19;130043;-38
2022/04/12 05:35:46;;;;;;;1.92;0.50;;;;;;;19.12;30.63;100803.34;16137366;19;130112;-39
2022/04/12 05:41:07;;;;;;;3.92;0.60;;;;;;;19.11;30.36;100791.41;16134076;19;128971;-40
2022/04/12 05:46:30;;;;;;;1.80;0.52;;;;;;;19.12;30.60;100795.03;16136509;19;129602;-38
2022/04/12 05:51:51;;;;;;;2.58;0.60;;;;;;;19.13;30.31;100799.47;16135100;19;129797;-38
2022/04/12 05:57:13;;;;;;;1.50;0.60;;;;;;;19.14;30.69;100815.03;16136295;19;129285;-41
2022/04/12 06:02:40;;;;;;;3.42;0.70;;;;;;;19.13;30.41;100816.97;16128295;19;129847;-41
2022/04/12 06:08:07;;;;;;;4.72;0.50;;;;;;;19.17;30.64;100825.63;16133329;19;130343;-38
2022/04/12 06:13:29;;;;;;;2.72;0.70;;;;;;;19.24;30.47;100812.44;16134581;19;129725;-40
2022/04/12 06:18:52;;;;;;;3.28;0.60;;;;;;;19.31;30.26;100815.91;16134268;19;129363;-41
2022/04/12 06:24:14;;;;;;;4.32;0.65;;;;;;;19.35;30.05;100828.16;16135814;19;131484;-41
2022/04/12 06:29:36;;;;;;;1.38;0.60;;;;;;;19.41;30.05;100819.91;16134248;19;130509;-40
2022/04/12 06:34:58;;;;;;;1.85;0.60;;;;;;;19.47;30.17;100818.88;16133377;19;129845;-42
2022/04/12 06:40:20;;;;;;;1.15;0.60;;;;;;;19.55;29.93;100825.94;16130162;19;129624;-41
2022/04/12 06:45:42;;;;;;;2.40;0.63;;;;;;;19.63;29.73;100826.34;16132981;19;128878;-38
2022/04/12 06:51:04;;;;;;;3.70;0.68;;;;;;;19.72;30.06;100837.84;16133495;19;129438;-38
2022/04/12 06:56:27;;;;;;;4.32;0.60;;;;;;;19.80;29.81;100829.06;16134127;19;129549;-39
2022/04/12 07:01:48;;;;;;;1.77;0.50;;;;;;;19.86;29.55;100827.22;16127632;19;129894;-39
2022/04/12 07:07:10;;;;;;;0.93;0.52;;;;;;;19.89;29.69;100837.81;16127804;19;129627;-38
2022/04/12 07:12:34;;;;;;;0.93;0.50;;;;;;;19.97;29.75;100842.06;16131800;19;129663;-38
2022/04/12 07:17:56;;;;;;;1.85;0.60;;;;;;;20.04;29.39;100839.97;16128241;19;129714;-41
2022/04/12 07:23:17;;;;;;;1.08;0.40;;;;;;;20.10;29.87;100849.19;16141475;19;130441;-39
2022/04/12 07:28:39;;;;;;;2.33;0.40;;;;;;;20.13;29.46;100851.47;16146979;19;129734;-40
2022/04/12 07:34:01;;;;;;;2.72;0.52;;;;;;;20.13;29.52;100865.34;16147489;19;129398;-42
2022/04/12 07:39:24;;;;;;;1.65;0.57;;;;;;;20.15;29.55;100860.38;16145829;19;130546;-39
2022/04/12 07:44:45;;;;;;;1.15;0.60;;;;;;;20.17;29.41;100844.31;16143842;19;129589;-39
2022/04/12 07:50:09;;;;;;;3.20;0.70;;;;;;;20.19;29.38;100841.25;16142980;19;129664;-39
2022/04/12 07:55:31;;;;;;;1.45;0.63;;;;;;;20.24;29.83;100844.94;16137782;19;129739;-38
2022/04/12 08:00:53;;;;;;;1.48;0.77;;;;;;;20.33;29.68;100838.91;16138184;19;129163;-38
2022/04/12 08:06:15;;;;;;;2.35;0.70;;;;;;;20.38;29.64;100823.13;16141168;19;129324;-38
2022/04/12 08:11:37;;;;;;;6.03;0.75;;;;;;;20.44;29.51;100818.47;16140831;19;129083;-38
2022/04/12 08:16:58;;;;;;;2.25;1.05;;;;;;;20.50;29.65;100811.03;16140578;19;129556;-39
2022/04/12 08:22:20;;;;;;;0.90;0.75;;;;;;;20.53;29.27;100825.28;16136684;19;130041;-40
2022/04/12 08:28:02;;;;;;;2.28;0.73;;;;;;;20.55;29.66;100811.94;16140138;19;129718;-41
2022/04/12 08:33:26;;;;;;;3.20;0.80;;;;;;;20.57;29.66;100820.84;16137464;19;128957;-40
2022/04/12 08:38:51;;;;;;;3.33;0.85;;;;;;;20.60;29.71;100811.97;16141337;19;129292;-41
2022/04/12 08:44:16;;;;;;;;;;;;;;;20.59;29.75;100818.66;16137477;19;129424;-39
2022/04/12 08:49:40;;;;;;;5.07;1.00;;;;;;;20.63;29.25;100820.91;16138042;19;130755;-38
2022/04/12 08:55:02;;;;;;;1.00;0.57;;;;;;;20.62;29.56;100802.56;16140599;19;128943;-38
2022/04/12 09:00:24;;;;;;;1.70;0.52;;;;;;;20.59;29.82;100792.81;16137962;19;129769;-38
2022/04/12 09:05:46;;;;;;;0.75;0.45;;;;;;;20.58;29.49;100782.78;16137853;19;129283;-38
2022/04/12 09:11:08;;;;;;;0.75;0.55;;;;;;;20.55;29.65;100778.59;16137549;19;129387;-38
2022/04/12 09:16:30;;;;;;;2.50;0.70;;;;;;;20.54;29.54;100776.06;16135857;19;129583;-38
2022/04/12 09:21:52;;;;;;;1.58;0.60;;;;;;;20.52;29.53;100773.56;16133971;19;129413;-40
2022/04/12 09:27:20;;;;;;;1.23;0.70;;;;;;;20.51;29.95;100766.31;16133137;19;132250;-38
2022/04/12 09:32:46;;;;;;;2.10;0.80;;;;;;;20.51;30.09;100766.31;16138576;19;129526;-38
2022/04/12 09:38:09;;;;;;;0.85;0.60;;;;;;;20.49;29.85;100754.63;16136506;19;130788;-39
2022/04/12 09:43:31;;;;;;;2.38;0.60;;;;;;;20.44;29.94;100758.19;16131342;19;130275;-38
2022/04/12 09:48:53;;;;;;;0.75;0.45;;;;;;;20.41;29.82;100761.50;16136118;19;129350;-39
2022/04/12 09:54:22;;;;;;;1.33;0.65;;;;;;;20.40;29.97;100756.22;16136325;19;129083;-38
2022/04/12 09:59:45;;;;;;;0.90;0.50;;;;;;;20.39;29.73;100755.34;16133184;19;128926;-38
2022/04/12 10:05:08;;;;;;;1.52;0.40;;;;;;;20.38;29.94;100750.91;16134874;19;130557;-38
2022/04/12 10:10:31;;;;;;;1.92;0.50;;;;;;;20.37;30.41;100765.06;16129290;19;130523;-38
2022/04/12 10:15:53;;;;;;;2.55;0.60;;;;;;;20.35;30.53;100790.34;16129351;19;131197;-41
2022/04/12 10:21:15;;;;;;;1.80;0.60;;;;;;;20.36;30.32;100768.94;16133372;19;129056;-39
2022/04/12 10:26:38;;;;;;;2.30;1.00;;;;;;;20.34;30.17;100748.91;16135749;19;129399;-41
2022/04/12 10:32:12;;;;;;;1.52;0.80;;;;;;;20.33;30.52;100750.00;16127724;19;129345;-39
2022/04/12 10:37:56;;;;;;;2.33;1.00;;;;;;;20.31;30.57;100760.56;16134383;19;129616;-39
2022/04/12 10:43:38;;;;;;;2.90;1.10;;;;;;;20.31;30.28;100760.56;16129059;19;128988;-39
2022/04/12 10:49:06;;;;;;;2.42;0.90;;;;;;;20.31;30.42;100753.06;16132521;19;129572;-38
2022/04/12 10:54:30;;;;;;;1.67;1.10;;;;;;;20.28;30.49;100743.31;16132197;19;130113;-38
2022/04/12 10:59:53;;;;;;;5.55;1.40;;;;;;;20.27;30.66;100730.53;16138686;19;130128;-39
2022/04/12 11:05:37;;;;;;;2.15;1.00;;;;;;;20.26;30.61;100736.31;16143168;19;129875;-40
2022/04/12 11:10:59;;;;;;;2.03;1.10;;;;;;;20.24;30.88;100739.38;16141306;19;129753;-39
2022/04/12 11:16:26;;;;;;;2.55;1.15;;;;;;;20.24;31.17;100741.34;16136745;19;129506;-38
2022/04/12 11:21:51;;;;;;;3.40;1.17;;;;;;;20.24;31.27;100733.00;16140639;19;129501;-38
2022/04/12 11:27:13;;;;;;;4.50;1.42;;;;;;;20.26;31.49;100748.28;16144751;19;129629;-38
2022/04/12 11:32:34;;;;;;;4.70;1.17;;;;;;;20.27;32.04;100749.97;16145307;19;129774;-39
2022/04/12 11:37:56;;;;;;;4.13;1.30;;;;;;;20.28;31.82;100729.44;16145234;19;130404;-38
2022/04/12 11:43:25;;;;;;;2.53;1.08;;;;;;;20.31;31.87;100724.47;16141442;19;129776;-39
2022/04/12 11:48:47;;;;;;;3.03;1.13;;;;;;;20.29;31.84;100731.13;16141244;19;129464;-38
2022/04/12 11:54:45;;;;;;;2.75;0.90;;;;;;;20.30;32.01;100729.16;16144592;19;129944;-38
2022/04/12 12:00:08;;;;;;;2.42;0.98;;;;;;;20.31;32.23;100713.34;16131614;19;130241;-38
2022/04/12 12:05:31;;;;;;;4.47;1.27;;;;;;;20.31;31.98;100713.34;16130456;19;129660;-38
2022/04/12 12:10:53;;;;;;;3.03;1.20;;;;;;;20.32;32.15;100723.31;16134709;19;129914;-38
2022/04/12 12:16:16;;;;;;;3.67;1.15;;;;;;;20.32;31.95;100718.63;16133536;19;130503;-38
2022/04/12 12:21:38;;;;;;;3.15;0.90;;;;;;;20.32;32.19;100713.06;16134590;19;129601;-38
2022/04/12 12:26:59;;;;;;;1.73;0.77;;;;;;;20.33;32.35;100711.13;16129277;19;129198;-38
2022/04/12 12:32:21;;;;;;;2.20;1.10;;;;;;;20.34;32.15;100707.25;16133621;19;129689;-38
2022/04/12 12:37:45;;;;;;;2.22;0.82;;;;;;;20.34;32.16;100710.88;16141476;19;129455;-38
2022/04/12 12:43:09;;;;;;;2.45;1.00;;;;;;;20.35;32.30;100703.38;16139280;19;130192;-39
2022/04/12 12:48:31;;;;;;;1.85;0.73;;;;;;;20.35;32.64;100706.13;16140033;19;129593;-38
2022/04/12 12:54:02;;;;;;;2.35;0.80;;;;;;;20.36;32.72;100696.72;16140644;19;129538;-41
2022/04/12 12:59:28;;;;;;;1.65;0.75;;;;;;;20.36;32.57;100691.16;16139738;19;129563;-38
2022/04/12 13:04:53;;;;;;;1.40;0.70;;;;;;;20.36;32.36;100691.16;16134088;19;129174;-38
2022/04/12 13:10:17;;;;;;;1.38;0.63;;;;;;;20.35;32.45;100693.09;16140188;19;129392;-42
2022/04/12 13:15:39;;;;;;;1.88;0.73;;;;;;;20.35;32.73;100690.31;16139598;19;132170;-38
2022/04/12 13:21:01;;;;;;;2.70;1.02;;;;;;;20.35;32.70;100690.31;16136967;19;130426;-40
2022/04/12 13:26:22;;;;;;;2.65;0.60;;;;;;;20.34;32.36;100696.97;16137860;19;129373;-39
2022/04/12 13:31:45;;;;;;;1.77;0.50;;;;;;;20.33;32.39;100681.41;16138319;19;129343;-38
2022/04/12 13:37:07;;;;;;;1.85;0.60;;;;;;;20.33;32.60;100680.56;16140135;19;130172;-39
2022/04/12 13:42:29;;;;;;;1.98;0.60;;;;;;;20.33;32.91;100678.63;16135175;19;129554;-38
2022/04/12 13:47:51;;;;;;;1.95;0.60;;;;;;;20.34;32.77;100665.56;16137376;19;129494;-39
2022/04/12 13:53:12;;;;;;;1.52;0.70;;;;;;;20.34;33.01;100666.41;16135829;19;129036;-38
2022/04/12 13:58:34;;;;;;;1.23;0.57;;;;;;;20.34;32.53;100662.78;16133475;19;128892;-38
2022/04/12 14:03:56;;;;;;;2.20;0.75;;;;;;;20.34;32.67;100682.25;16132212;19;129863;-38
2022/04/12 14:09:18;;;;;;;2.53;0.70;;;;;;;20.33;32.60;100677.78;16132032;19;129316;-38
2022/04/12 14:14:40;;;;;;;3.30;0.80;;;;;;;20.33;32.46;100686.13;16134523;19;129070;-39
2022/04/12 14:20:02;;;;;;;1.80;0.70;;;;;;;20.33;32.29;100688.88;16128897;19;129567;-39
2022/04/12 14:25:24;;;;;;;2.13;0.70;;;;;;;20.33;32.16;100695.31;16127247;19;129235;-39
2022/04/12 14:30:45;;;;;;;3.70;0.90;;;;;;;20.34;32.21;100696.13;16134104;19;129721;-38
2022/04/12 14:36:08;;;;;;;4.80;0.85;;;;;;;20.32;32.22;100696.41;16136079;19;129866;-39
2022/04/12 14:41:31;;;;;;;2.85;1.15;;;;;;;20.33;32.16;100698.09;16134988;19;129147;-39
2022/04/12 14:46:53;;;;;;;3.85;1.13;;;;;;;20.34;32.10;100682.25;16134310;19;129033;-39
2022/04/12 14:52:15;;;;;;;4.45;1.10;;;;;;;20.33;32.04;100686.97;16134819;19;130331;-38
2022/04/12 14:57:37;;;;;;;3.95;0.82;;;;;;;20.34;31.97;100690.56;16129738;19;129164;-38
2022/04/12 15:02:59;;;;;;;4.97;1.20;;;;;;;20.33;32.18;100694.44;16126148;19;129715;-38
2022/04/12 15:08:21;;;;;;;3.80;0.77;;;;;;;20.33;31.93;100694.44;16124999;19;129747;-38
2022/04/12 15:13:43;;;;;;;4.22;0.95;;;;;;;20.32;32.09;100692.78;16130846;19;128982;-38
2022/04/12 15:19:04;;;;;;;4.72;0.75;;;;;;;20.33;31.84;100697.22;16128060;19;130303;-38
2022/04/12 15:24:28;;;;;;;2.65;1.00;;;;;;;20.31;32.05;100705.00;16126038;19;129535;-38
2022/04/12 15:29:49;;;;;;;2.28;0.95;;;;;;;20.31;31.80;100705.00;16130915;19;128932;-40
2022/04/12 15:35:11;;;;;;;5.03;1.13;;;;;;;20.31;31.82;100705.00;16130471;19;129281;-38
2022/04/12 15:40:34;;;;;;;6.35;1.00;;;;;;;20.29;31.97;100708.03;16134951;19;130355;-38
2022/04/12 15:45:55;;;;;;;5.63;1.00;;;;;;;20.28;31.70;100714.69;16140497;19;129277;-38
2022/04/12 15:51:18;;;;;;;9.05;1.13;;;;;;;20.26;32.07;100734.41;16145084;19;128947;-39
2022/04/12 15:56:41;;;;;;;7.80;1.35;;;;;;;20.27;31.65;100733.31;16145869;19;130264;-39
2022/04/12 16:02:03;;;;;;;5.13;1.02;;;;;;;20.24;31.69;100742.16;16140401;19;129025;-38
2022/04/12 16:07:26;;;;;;;3.25;1.10;;;;;;;20.23;31.72;100740.47;16144813;19;129157;-38
2022/04/12 16:12:48;;;;;;;2.33;1.00;;;;;;;20.23;31.76;100748.00;16142557;19;130794;-38
2022/04/12 16:18:10;;;;;;;3.45;1.17;;;;;;;20.21;31.79;100745.44;16142480;19;130177;-38
2022/04/12 16:23:32;;;;;;;2.58;0.80;;;;;;;20.21;31.84;100753.78;16140611;19;130570;-42
2022/04/12 16:28:54;;;;;;;4.15;0.90;;;;;;;20.19;31.99;100747.66;16145222;19;130229;-39
2022/04/12 16:34:16;;;;;;;4.03;1.10;;;;;;;20.17;32.46;100744.31;16144505;19;129503;-38
2022/04/12 16:39:38;;;;;;;3.97;1.40;;;;;;;20.17;32.08;100749.88;16137775;19;129121;-38
2022/04/12 16:45:00;;;;;;;3.55;1.30;;;;;;;20.16;32.51;100758.44;16136205;19;130011;-39
2022/04/12 16:50:22;;;;;;;5.53;1.40;;;;;;;20.14;32.65;100764.28;16139128;19;129705;-38
2022/04/12 16:55:44;;;;;;;2.67;1.05;;;;;;;20.11;32.52;100762.00;16138045;19;129605;-38
2022/04/12 17:01:06;;;;;;;2.03;0.88;;;;;;;20.09;32.26;100778.09;16136020;19;129086;-38
2022/04/12 17:06:27;;;;;;;5.20;1.20;;;;;;;20.07;32.89;100783.91;16134611;19;129538;-38
2022/04/12 17:11:49;;;;;;;16.33;1.60;;;;;;;20.11;32.79;100785.09;16127860;19;129485;-41
2022/04/12 17:17:11;;;;;;;13.25;1.33;;;;;;;20.32;33.13;100790.00;16134858;19;129435;-39
2022/04/12 17:22:34;;;;;;;7.28;1.23;;;;;;;20.59;32.61;100799.19;16137936;19;129399;-38
2022/04/12 17:27:55;;;;;;;7.75;1.40;;;;;;;20.84;32.82;100803.34;16134327;19;130447;-40
2022/04/12 17:33:18;;;;;;;9.25;1.70;;;;;;;21.06;32.28;100811.59;16138226;19;129330;-39
2022/04/12 17:38:39;;;;;;;7.13;1.30;;;;;;;21.24;31.96;100814.22;16137811;19;129074;-38
2022/04/12 17:44:01;;;;;;;7.00;1.00;;;;;;;21.36;32.21;100824.03;16134719;19;129501;-40
2022/04/12 17:49:23;;;;;;;9.55;1.02;;;;;;;21.51;31.96;100836.44;16134883;19;130199;-38
2022/04/12 17:54:45;;;;;;;3.35;0.90;;;;;;;21.58;31.96;100827.84;16137465;19;130090;-38
2022/04/12 18:00:07;;;;;;;9.88;0.95;;;;;;;21.60;31.71;100837.59;16130391;19;129728;-42
2022/04/12 18:05:29;;;;;;;3.88;0.93;;;;;;;21.55;32.05;100839.50;16130104;19;130714;-40
2022/04/12 18:10:51;;;;;;;5.32;0.90;;;;;;;21.51;32.47;100850.34;16127208;19;129179;-41
2022/04/12 18:16:13;;;;;;;7.63;0.82;;;;;;;21.47;32.48;100850.00;16130038;19;130661;-40
2022/04/12 18:21:34;;;;;;;7.65;0.93;;;;;;;21.41;32.55;100853.88;16134211;19;130245;-39
2022/04/12 18:26:56;;;;;;;5.78;0.98;;;;;;;21.36;32.90;100864.97;16128280;19;129420;-39
2022/04/12 18:32:18;;;;;;;4.60;1.05;;;;;;;21.29;33.18;100865.19;16132713;19;130272;-39
2022/04/12 18:37:40;;;;;;;3.90;0.77;;;;;;;21.23;33.36;100871.84;16133223;19;130701;-40
2022/04/12 18:43:03;;;;;;;3.05;0.68;;;;;;;21.18;33.01;100875.38;16129894;19;129697;-41
2022/04/12 18:48:25;;;;;;;6.63;0.70;;;;;;;21.13;33.62;100878.13;16131183;19;129903;-42
2022/04/12 18:53:46;;;;;;;2.22;0.52;;;;;;;21.13;33.32;100880.91;16131934;19;130948;-38
2022/04/12 18:59:09;;;;;;;2.05;0.60;;;;;;;21.13;33.50;100894.81;16129836;19;130021;-41
2022/04/12 19:04:30;;;;;;;5.15;0.63;;;;;;;21.14;33.86;100888.16;16128509;19;129604;-38
2022/04/12 19:09:56;;;;;;;9.77;0.70;;;;;;;21.20;33.50;100895.44;16130268;19;129573;-39
2022/04/12 19:15:18;;;;;;;;;;;;;;;21.35;33.72;100907.81;16133626;19;129461;-38
2022/04/12 19:20:40;;;;;;;3.47;0.95;;;;;;;21.53;33.85;100903.81;16148043;19;129523;-39
2022/04/12 19:26:02;;;;;;;3.60;0.70;;;;;;;21.67;33.69;100915.31;16141222;19;129378;-41
2022/04/12 19:31:24;;;;;;;1.95;0.40;;;;;;;21.80;33.24;100920.41;16143969;19;132086;-39
2022/04/12 19:36:47;;;;;;;2.45;0.60;;;;;;;21.91;33.47;100921.34;16144401;19;129252;-39
2022/04/12 19:42:08;;;;;;;3.45;0.60;;;;;;;21.98;33.66;100926.66;16141477;19;129288;-42
2022/04/12 19:47:34;;;;;;;2.85;0.60;;;;;;;22.05;33.53;100921.69;16142620;19;129686;-38
2022/04/12 19:52:55;;;;;;;;;;;;;;;22.09;33.37;100922.00;16143203;19;130184;-41
2022/04/12 19:58:18;;;;;;;13.23;0.95;;;;;;;22.13;33.22;100918.41;16139020;19;129663;-40
2022/04/12 20:03:43;;;;;;;2.33;0.70;;;;;;;22.12;32.80;100927.00;16138506;19;129504;-38
2022/04/12 20:09:05;;;;;;;;;;;;;;;22.09;32.98;100927.56;16142553;19;129894;-39
2022/04/12 20:14:27;;;;;;;1.73;0.70;;;;;;;22.10;32.72;100930.06;16140746;19;130672;-39
2022/04/12 20:19:50;;;;;;;4.32;0.75;;;;;;;22.08;32.92;100937.03;16141807;19;130086;-39
2022/04/12 20:25:15;;;;;;;4.10;0.80;;;;;;;22.07;32.55;100946.50;16131711;19;129567;-39
2022/04/12 20:30:38;;;;;;;4.50;0.70;;;;;;;22.08;32.42;100943.44;16136329;19;132576;-42
2022/04/12 20:36:00;;;;;;;3.10;0.70;;;;;;;22.09;32.42;100944.28;16136875;19;130329;-38
2022/04/12 20:41:22;;;;;;;2.22;0.70;;;;;;;22.02;32.47;100947.31;16130710;19;129245;-40
2022/04/12 20:46:44;;;;;;;2.95;0.80;;;;;;;21.94;32.81;100950.59;16132715;19;129486;-41
2022/04/12 20:52:09;;;;;;;3.45;0.90;;;;;;;21.85;32.82;100949.41;16134022;19;129477;-39
2022/04/12 20:57:32;;;;;;;4.18;0.70;;;;;;;21.74;32.92;100943.78;16138801;19;129360;-41
2022/04/12 21:02:54;;;;;;;3.60;0.60;;;;;;;21.67;33.19;100954.28;16139763;19;129667;-42
2022/04/12 21:08:16;;;;;;;2.45;0.60;;;;;;;21.56;33.33;100950.59;16141999;19;129561;-39
2022/04/12 21:13:38;;;;;;;1.75;0.50;;;;;;;21.47;33.41;100955.78;16141871;19;130031;-39
2022/04/12 21:19:00;;;;;;;3.00;0.93;;;;;;;21.40;33.20;100966.31;16139507;19;129381;-41
2022/04/12 21:24:22;;;;;;;2.00;0.40;;;;;;;21.33;33.12;100971.22;16138618;19;129577;-39
2022/04/12 21:29:44;;;;;;;1.33;0.63;;;;;;;21.26;33.27;100970.63;16139155;19;129489;-39
2022/04/12 21:35:06;;;;;;;2.35;0.52;;;;;;;21.18;33.57;100980.28;16138162;19;130213;-39
2022/04/12 21:40:28;;;;;;;1.40;0.57;;;;;;;21.11;33.81;100980.47;16138645;19;129076;-40
2022/04/12 21:45:49;;;;;;;1.20;0.43;;;;;;;21.06;33.69;100991.53;16135232;19;129327;-39
2022/04/12 21:51:11;;;;;;;1.52;0.40;;;;;;;21.01;33.86;100997.06;16132553;19;129851;-39
2022/04/12 21:56:34;;;;;;;2.15;0.57;;;;;;;20.95;33.54;100998.09;16138071;19;129165;-39
2022/04/12 22:01:55;;;;;;;0.93;0.35;;;;;;;20.89;33.93;100995.28;16135837;19;129485;-39
2022/04/12 22:07:17;;;;;;;0.60;0.35;;;;;;;20.85;33.68;101002.44;16134374;19;129588;-39
2022/04/12 22:12:39;;;;;;;0.60;0.30;;;;;;;20.81;33.70;101009.59;16140583;19;130681;-42
2022/04/12 22:18:01;;;;;;;1.00;0.30;;;;;;;20.77;33.92;101016.81;16139927;19;129564;-39
2022/04/12 22:23:23;;;;;;;1.75;0.65;;;;;;;20.71;34.13;101020.56;16139200;19;129802;-40
2022/04/12 22:28:45;;;;;;;1.02;0.28;;;;;;;20.69;33.85;101034.75;16138891;19;129043;-40
2022/04/12 22:34:07;;;;;;;0.95;0.38;;;;;;;20.66;34.15;101023.31;16138414;19;129246;-39
2022/04/12 22:39:29;;;;;;;0.90;0.40;;;;;;;20.63;33.99;101040.50;16134627;19;129593;-40
2022/04/12 22:44:52;;;;;;;2.00;0.40;;;;;;;20.61;33.76;101029.66;16136624;19;129422;-42
2022/04/12 22:50:14;;;;;;;1.27;0.43;;;;;;;20.58;33.72;101050.44;16140229;19;130223;-42
2022/04/12 22:55:36;;;;;;;1.90;0.60;;;;;;;20.54;33.96;101037.31;16152472;19;129745;-38
2022/04/12 23:00:58;;;;;;;0.85;0.30;;;;;;;20.53;34.22;101041.19;16147553;19;129385;-40
2022/04/12 23:06:20;;;;;;;0.73;0.38;;;;;;;20.50;33.79;101039.78;16144606;19;129665;-39
2022/04/12 23:11:41;;;;;;;1.00;0.60;;;;;;;20.51;33.97;101060.91;16149855;19;128894;-40
2022/04/12 23:17:03;;;;;;;1.05;0.40;;;;;;;20.47;34.00;101073.63;16147249;19;129408;-41
2022/04/12 23:22:25;;;;;;;1.15;0.52;;;;;;;20.46;34.00;101069.16;16155181;19;130057;-40
2022/04/12 23:27:47;;;;;;;1.05;0.30;;;;;;;20.45;33.82;101073.03;16141538;19;129820;-39
2022/04/12 23:33:09;;;;;;;0.57;0.43;;;;;;;20.43;34.18;101075.25;16146124;19;129853;-39
2022/04/12 23:38:31;;;;;;;0.45;0.30;;;;;;;20.41;33.98;101083.00;16149486;19;129832;-40
2022/04/12 23:43:53;;;;;;;0.57;0.30;;;;;;;20.40;34.16;101082.13;16147097;19;129309;-42
2022/04/12 23:49:15;;;;;;;0.50;0.20;;;;;;;20.37;33.79;101082.63;16143822;19;129790;-39
2022/04/12 23:54:36;;;;;;;0.55;0.40;;;;;;;20.36;33.91;101085.69;16143513;19;129019;-39
2022/04/12 23:59:58;;;;;;;0.65;0.30;;;;;;;20.34;33.88;101099.84;16141466;19;129637;-40
